Time;durP1;ratioP1;P1;durP2;ratioP2;P2;SDS_P1;SDS_P2;PMS_P1;PMS_P2;Temp;Humidity;BMP_temperature;BMP_pressure;BME280_temperature;BME280_humidity;BME280_pressure;Samples;Min_cycle;Max_cycle;Signal;HPM_P1;HPM_P2
2024/02/06 00:07:00;;;;;;;;;;;2.80;99.90;;;;;;21228896;28;19916;-79
2024/02/06 00:17:01;;;;;;;;;;;2.90;99.90;;;;;;21224917;28;19927;-82
2024/02/06 00:27:01;;;;;;;;;;;2.90;99.90;;;;;;21196285;27;19937;-81
2024/02/06 00:37:02;;;;;;;;;;;3.10;99.90;;;;;;21165878;28;19920;-81
2024/02/06 00:47:02;;;;;;;;;;;3.10;99.90;;;;;;21164055;28;19912;-80
2024/02/06 00:57:03;;;;;;;;;;;3.10;99.90;;;;;;21177381;28;19916;-81
2024/02/06 01:07:04;;;;;;;;;;;3.10;99.90;;;;;;21180153;28;19950;-82
2024/02/06 01:17:04;;;;;;;;;;;3.20;99.90;;;;;;21158599;28;19942;-82
2024/02/06 01:27:05;;;;;;;;;;;3.10;99.90;;;;;;21159059;28;19900;-78
2024/02/06 01:37:06;;;;;;;;;;;3.10;99.90;;;;;;21165176;28;19923;-81
2024/02/06 01:47:07;;;;;;;;;;;2.90;99.90;;;;;;21159380;28;19964;-79
2024/02/06 01:57:08;;;;;;;;;;;2.90;99.90;;;;;;21152146;28;19943;-80
2024/02/06 02:07:09;;;;;;;;;;;2.80;99.90;;;;;;21151976;28;19916;-80
2024/02/06 02:17:10;;;;;;;;;;;2.80;99.90;;;;;;21164167;28;19960;-80
2024/02/06 02:27:11;;;;;;;;;;;2.70;99.90;;;;;;21151363;28;20003;-81
2024/02/06 02:37:12;;;;;;;;;;;2.70;99.90;;;;;;21157846;28;19915;-79
2024/02/06 02:47:12;;;;;;;;;;;2.70;99.90;;;;;;21140235;28;20278;-78
2024/02/06 02:57:13;;;;;;;;;;;2.70;99.90;;;;;;21161275;28;19937;-78
2024/02/06 03:07:14;;;;;;;;;;;2.80;99.90;;;;;;21164542;28;19923;-82
2024/02/06 03:17:15;;;;;;;;;;;2.90;99.90;;;;;;21155707;28;20002;-80
2024/02/06 03:27:16;;;;;;;;;;;2.80;99.90;;;;;;21179793;28;20005;-81
2024/02/06 03:37:18;;;;;;;;;;;2.90;99.90;;;;;;21171251;28;19923;-83
2024/02/06 03:47:18;;;;;;;;;;;2.80;99.90;;;;;;21164653;28;19923;-79
2024/02/06 03:57:19;;;;;;;;;;;2.80;99.90;;;;;;21174877;28;19915;-81
2024/02/06 04:07:21;;;;;;;;;;;2.80;99.90;;;;;;21168654;28;19976;-81
2024/02/06 04:17:22;;;;;;;;;;;2.80;99.90;;;;;;21164561;28;19923;-80
2024/02/06 04:27:23;;;;;;;;;;;2.90;99.90;;;;;;21179944;28;20243;-83
2024/02/06 04:37:23;;;;;;;;;;;2.90;99.90;;;;;;21176768;28;19923;-83
2024/02/06 04:47:24;;;;;;;;;;;3.00;99.90;;;;;;21190168;28;19935;-80
2024/02/06 04:57:25;;;;;;;;;;;2.90;99.90;;;;;;21167319;28;19916;-82
2024/02/06 05:07:25;;;;;;;;;;;2.90;99.90;;;;;;21174231;28;19916;-81
2024/02/06 05:17:26;;;;;;;;;;;2.90;99.90;;;;;;21165376;28;19916;-83
2024/02/06 05:27:27;;;;;;;;;;;3.00;99.90;;;;;;21158290;28;19911;-82
2024/02/06 05:37:28;;;;;;;;;;;3.10;99.90;;;;;;21187349;28;19919;-76
2024/02/06 05:47:29;;;;;;;;;;;3.30;99.90;;;;;;21171848;28;19998;-79
2024/02/06 05:57:30;;;;;;;;;;;3.30;99.90;;;;;;21166511;27;19916;-79
2024/02/06 06:07:30;;;;;;;;;;;3.30;99.90;;;;;;21164156;28;19920;-82
2024/02/06 06:17:31;;;;;;;;;;;3.40;99.90;;;;;;21158542;28;19922;-80
2024/02/06 06:27:32;;;;;;;;;;;3.50;99.90;;;;;;21164689;28;19912;-83
2024/02/06 06:37:32;;;;;;;;;;;3.50;99.90;;;;;;21138886;28;20176;-80
2024/02/06 06:47:33;;;;;;;;;;;3.60;99.90;;;;;;21153444;28;19957;-80
2024/02/06 06:57:35;;;;;;;;;;;3.60;99.90;;;;;;21151140;28;19945;-79
2024/02/06 07:07:36;;;;;;;;;;;3.70;99.90;;;;;;21156921;28;19985;-80
2024/02/06 07:17:37;;;;;;;;;;;3.70;99.90;;;;;;21158109;28;19916;-81
2024/02/06 07:27:38;;;;;;;;;;;3.70;99.90;;;;;;21153884;28;19923;-80
2024/02/06 07:37:38;;;;;;;;;;;3.70;99.90;;;;;;21155404;28;19920;-80
2024/02/06 07:47:40;;;;;;;;;;;3.70;99.90;;;;;;21138731;28;19920;-80
2024/02/06 07:57:42;;;;;;;;;;;3.80;99.90;;;;;;21142138;28;20275;-80
2024/02/06 08:07:42;;;;;;;;;;;3.90;99.90;;;;;;21159664;28;19923;-80
2024/02/06 08:17:47;;;;;;;;;;;4.00;99.90;;;;;;21172891;28;19916;-80
2024/02/06 08:27:48;;;;;;;;;;;4.20;99.90;;;;;;21179645;28;19915;-79
2024/02/06 08:37:48;;;;;;;;;;;4.30;99.90;;;;;;21175866;28;19919;-81
2024/02/06 08:47:49;;;;;;;;;;;4.30;99.90;;;;;;21160177;28;19980;-81
2024/02/06 08:57:49;;;;;;;;;;;4.30;99.90;;;;;;21162056;28;19919;-80
2024/02/06 09:07:50;;;;;;;;;;;4.50;99.90;;;;;;21162491;27;20416;-84
2024/02/06 09:17:51;;;;;;;;;;;4.60;99.90;;;;;;21145902;28;19916;-81
2024/02/06 09:27:52;;;;;;;;;;;5.30;99.90;;;;;;21149048;28;20006;-85
2024/02/06 09:37:53;;;;;;;;;;;5.30;99.90;;;;;;21169105;28;20330;-84
2024/02/06 09:47:53;;;;;;;;;;;5.60;99.90;;;;;;21170884;27;19911;-83
2024/02/06 09:57:55;;;;;;;;;;;6.10;99.90;;;;;;21172921;28;19916;-83
2024/02/06 10:07:56;;;;;;;;;;;6.40;99.90;;;;;;21162191;27;19916;-82
2024/02/06 10:17:57;;;;;;;;;;;6.50;99.90;;;;;;21155678;28;19916;-81
2024/02/06 10:27:58;;;;;;;;;;;6.50;99.90;;;;;;21150832;28;19912;-83
2024/02/06 10:38:02;;;;;;;;;;;6.40;99.90;;;;;;21149161;28;20210;-82
2024/02/06 10:48:03;;;;;;;;;;;6.40;99.90;;;;;;21147406;28;19911;-82
2024/02/06 10:58:05;;;;;;;;;;;6.60;99.90;;;;;;21155061;28;19920;-85
2024/02/06 11:08:07;;;;;;;;;;;7.00;99.90;;;;;;21139286;28;20359;-81
2024/02/06 11:18:09;;;;;;;;;;;7.00;99.90;;;;;;21132783;28;19931;-82
2024/02/06 11:28:10;;;;;;;;;;;7.50;99.90;;;;;;21137761;28;19915;-82
2024/02/06 11:38:12;;;;;;;;;;;7.50;99.90;;;;;;21156775;28;19944;-82
2024/02/06 11:48:12;;;;;;;;;;;7.60;99.90;;;;;;21176926;28;19918;-81
2024/02/06 11:58:13;;;;;;;;;;;7.70;99.90;;;;;;21172681;28;19916;-81
2024/02/06 12:08:23;;;;;;;;;;;8.70;99.90;;;;;;21181969;28;19904;-81
2024/02/06 12:18:25;;;;;;;;;;;9.40;99.90;;;;;;21225012;28;19919;-80
2024/02/06 12:28:25;;;;;;;;;;;10.90;99.90;;;;;;21175299;28;20453;-81
2024/02/06 12:38:26;;;;;;;;;;;10.20;99.90;;;;;;21152901;28;19937;-79
2024/02/06 12:48:27;;;;;;;;;;;10.10;99.90;;;;;;21160835;28;19916;-82
2024/02/06 12:58:28;;;;;;;;;;;9.50;99.90;;;;;;21160520;28;19916;-81
2024/02/06 13:08:29;;;;;;;;;;;10.00;99.90;;;;;;21152903;28;19926;-79
2024/02/06 13:18:32;;;;;;;;;;;9.10;99.90;;;;;;21165097;28;19916;-81
2024/02/06 13:28:33;;;;;;;;;;;9.10;99.90;;;;;;21178860;27;20398;-80
2024/02/06 13:38:34;;;;;;;;;;;8.80;99.90;;;;;;21167884;28;19954;-78
2024/02/06 13:48:35;;;;;;;;;;;8.60;99.90;;;;;;21160371;28;19927;-79
2024/02/06 13:58:35;;;;;;;;;;;8.20;99.90;;;;;;21157487;28;19920;-80
2024/02/06 14:08:36;;;;;;;;;;;8.20;99.90;;;;;;21169563;28;20307;-79
2024/02/06 14:18:37;;;;;;;;;;;8.20;99.90;;;;;;21175093;28;19915;-80
2024/02/06 14:28:37;;;;;;;;;;;8.10;99.90;;;;;;21167905;28;19955;-79
2024/02/06 14:38:38;;;;;;;;;;;7.90;99.90;;;;;;21174572;28;20375;-79
2024/02/06 14:48:39;;;;;;;;;;;7.80;99.90;;;;;;21169053;28;19916;-80
2024/02/06 14:58:40;;;;;;;;;;;7.80;99.90;;;;;;21168556;28;20014;-80
2024/02/06 15:08:40;;;;;;;;;;;7.80;99.90;;;;;;21165077;28;20374;-81
2024/02/06 15:18:41;;;;;;;;;;;7.90;99.90;;;;;;21173228;27;19915;-81
2024/02/06 15:28:42;;;;;;;;;;;7.70;99.90;;;;;;21193522;27;20019;-80
2024/02/06 15:38:43;;;;;;;;;;;7.60;99.90;;;;;;21166073;27;19922;-79
2024/02/06 15:48:44;;;;;;;;;;;7.50;99.90;;;;;;21163651;27;19962;-81
2024/02/06 15:58:45;;;;;;;;;;;7.40;99.90;;;;;;21176712;28;19911;-79
2024/02/06 16:08:45;;;;;;;;;;;7.30;99.90;;;;;;21192685;28;19923;-80
2024/02/06 16:18:46;;;;;;;;;;;7.30;99.90;;;;;;21203272;28;20328;-81
2024/02/06 16:28:47;;;;;;;;;;;7.10;99.90;;;;;;21218903;27;19911;-81
2024/02/06 16:38:48;;;;;;;;;;;6.90;99.90;;;;;;21208960;28;19941;-81
2024/02/06 16:48:49;;;;;;;;;;;6.80;99.90;;;;;;21189497;28;19912;-80
2024/02/06 16:58:49;;;;;;;;;;;6.70;99.90;;;;;;21199635;28;19958;-80
2024/02/06 17:08:50;;;;;;;;;;;6.80;99.90;;;;;;21214702;28;19951;-82
2024/02/06 17:18:51;;;;;;;;;;;6.80;99.90;;;;;;21202743;28;19911;-81
2024/02/06 17:28:52;;;;;;;;;;;6.70;99.90;;;;;;21166133;28;20294;-81
2024/02/06 17:38:52;;;;;;;;;;;6.70;99.90;;;;;;21169587;28;19923;-81
2024/02/06 17:48:53;;;;;;;;;;;6.60;99.90;;;;;;21191149;27;19919;-81
2024/02/06 17:58:53;;;;;;;;;;;6.60;99.90;;;;;;21164174;28;19912;-81
2024/02/06 18:08:54;;;;;;;;;;;6.60;99.90;;;;;;21168347;28;20387;-80
2024/02/06 18:18:55;;;;;;;;;;;6.70;99.90;;;;;;21176007;28;19932;-82
2024/02/06 18:28:55;;;;;;;;;;;6.70;99.90;;;;;;21170465;28;19916;-81
2024/02/06 18:38:56;;;;;;;;;;;6.70;99.90;;;;;;21167757;28;20290;-82
2024/02/06 18:48:57;;;;;;;;;;;6.70;99.90;;;;;;21174112;28;19958;-81
2024/02/06 18:58:57;;;;;;;;;;;6.70;99.90;;;;;;21131836;28;19966;-81
2024/02/06 19:08:59;;;;;;;;;;;6.70;99.90;;;;;;21137424;28;19919;-79
2024/02/06 19:19:00;;;;;;;;;;;6.80;99.90;;;;;;21142990;28;19916;-80
2024/02/06 19:29:01;;;;;;;;;;;6.60;99.90;;;;;;21179784;28;19958;-82
2024/02/06 19:39:02;;;;;;;;;;;6.70;99.90;;;;;;21180226;28;19912;-79
2024/02/06 19:49:03;;;;;;;;;;;6.70;99.90;;;;;;21168576;28;19912;-81
2024/02/06 19:59:04;;;;;;;;;;;6.60;99.90;;;;;;21155569;28;19912;-81
2024/02/06 20:09:06;;;;;;;;;;;6.60;99.90;;;;;;21171939;28;19916;-80
2024/02/06 20:19:07;;;;;;;;;;;6.60;99.90;;;;;;21184093;28;19912;-81
2024/02/06 20:29:09;;;;;;;;;;;6.70;99.90;;;;;;21178312;28;19965;-81
2024/02/06 20:39:11;;;;;;;;;;;6.70;99.90;;;;;;21173365;28;19916;-82
2024/02/06 20:49:12;;;;;;;;;;;6.70;99.90;;;;;;21202631;28;19907;-79
2024/02/06 20:59:12;;;;;;;;;;;6.70;99.90;;;;;;21186108;28;19912;-82
2024/02/06 21:09:14;;;;;;;;;;;6.70;99.90;;;;;;21170077;27;19927;-81
2024/02/06 21:19:14;;;;;;;;;;;6.70;99.90;;;;;;21189705;28;19912;-81
2024/02/06 21:29:15;;;;;;;;;;;6.70;99.90;;;;;;21206005;28;20441;-81
2024/02/06 21:39:20;;;;;;;;;;;6.70;99.90;;;;;;21193828;28;19912;-82
2024/02/06 21:49:22;;;;;;;;;;;6.70;99.90;;;;;;21192279;28;19959;-82
2024/02/06 21:59:22;;;;;;;;;;;6.70;99.90;;;;;;21199947;28;19912;-82
2024/02/06 22:09:23;;;;;;;;;;;6.70;99.90;;;;;;21197307;28;19959;-81
2024/02/06 22:19:25;;;;;;;;;;;6.50;99.90;;;;;;21201108;27;20003;-82
2024/02/06 22:29:26;;;;;;;;;;;6.50;99.90;;;;;;21191580;28;19916;-82
2024/02/06 22:39:27;;;;;;;;;;;6.50;99.90;;;;;;21198243;28;19919;-82
2024/02/06 22:49:27;;;;;;;;;;;6.50;99.90;;;;;;21192743;28;19916;-82
2024/02/06 22:59:28;;;;;;;;;;;6.40;99.90;;;;;;21197618;28;19971;-81
2024/02/06 23:09:29;;;;;;;;;;;6.40;99.90;;;;;;21181834;28;20438;-81
2024/02/06 23:19:29;;;;;;;;;;;6.40;99.90;;;;;;21176614;28;19977;-81
2024/02/06 23:29:30;;;;;;;;;;;6.40;99.90;;;;;;21185077;28;20367;-81
2024/02/06 23:39:32;;;;;;;;;;;6.30;99.90;;;;;;21202458;28;19938;-82
2024/02/06 23:49:34;;;;;;;;;;;6.30;99.90;;;;;;21207019;28;20298;-80
2024/02/06 23:59:34;;;;;;;;;;;6.10;99.90;;;;;;21193611;27;19919;-78
